sensor_id;sensor_type;location;lat;lon;timestamp;pressure;altitude;pressure_sealevel;temperature;humidity
34237;BME280;20501;45.956;13.632;2023-04-16T00:01:47;100071.91;;;10.19;68.49
34237;BME280;20501;45.956;13.632;2023-04-16T00:04:13;100056.53;;;8.26;74.08
34237;BME280;20501;45.956;13.632;2023-04-16T00:06:38;100065.28;;;9.28;70.18
34237;BME280;20501;45.956;13.632;2023-04-16T00:09:03;100068.53;;;9.32;69.68
34237;BME280;20501;45.956;13.632;2023-04-16T00:11:29;100076.78;;;10.05;70.73
34237;BME280;20501;45.956;13.632;2023-04-16T00:13:54;100054.19;;;10.16;67.45
34237;BME280;20501;45.956;13.632;2023-04-16T00:16:20;100073.88;;;9.99;70.94
34237;BME280;20501;45.956;13.632;2023-04-16T00:18:45;100055.03;;;10.99;67.85
34237;BME280;20501;45.956;13.632;2023-04-16T00:21:11;100064.06;;;9.98;65.90
34237;BME280;20501;45.956;13.632;2023-04-16T00:23:36;100065.25;;;10.69;67.89
34237;BME280;20501;45.956;13.632;2023-04-16T00:26:02;100059.88;;;9.75;70.41
34237;BME280;20501;45.956;13.632;2023-04-16T00:28:28;100047.25;;;10.78;66.98
34237;BME280;20501;45.956;13.632;2023-04-16T00:30:54;100047.19;;;11.58;65.88
34237;BME280;20501;45.956;13.632;2023-04-16T00:33:19;100048.53;;;12.15;63.91
34237;BME280;20501;45.956;13.632;2023-04-16T00:35:45;100051.50;;;12.04;64.14
34237;BME280;20501;45.956;13.632;2023-04-16T00:38:11;100052.81;;;11.39;62.29
34237;BME280;20501;45.956;13.632;2023-04-16T00:40:37;100055.56;;;9.93;66.02
34237;BME280;20501;45.956;13.632;2023-04-16T00:43:03;100049.13;;;7.68;76.91
34237;BME280;20501;45.956;13.632;2023-04-16T00:45:28;100061.81;;;9.93;72.37
34237;BME280;20501;45.956;13.632;2023-04-16T00:47:54;100052.09;;;10.92;67.94
34237;BME280;20501;45.956;13.632;2023-04-16T00:50:20;100043.31;;;11.87;64.58
34237;BME280;20501;45.956;13.632;2023-04-16T00:52:47;100047.91;;;12.30;63.09
34237;BME280;20501;45.956;13.632;2023-04-16T00:55:16;100044.00;;;10.28;64.51
34237;BME280;20501;45.956;13.632;2023-04-16T00:57:43;100055.50;;;8.68;70.71
34237;BME280;20501;45.956;13.632;2023-04-16T01:00:09;100046.59;;;8.17;76.57
34237;BME280;20501;45.956;13.632;2023-04-16T01:02:35;100053.16;;;8.24;72.65
34237;BME280;20501;45.956;13.632;2023-04-16T01:05:01;100046.66;;;9.44;67.70
34237;BME280;20501;45.956;13.632;2023-04-16T01:07:27;100059.06;;;9.08;73.02
34237;BME280;20501;45.956;13.632;2023-04-16T01:09:53;100045.72;;;10.29;66.13
34237;BME280;20501;45.956;13.632;2023-04-16T01:12:18;100053.16;;;8.34;75.42
34237;BME280;20501;45.956;13.632;2023-04-16T01:14:44;100043.47;;;8.62;76.36
34237;BME280;20501;45.956;13.632;2023-04-16T01:17:09;100048.63;;;9.52;71.93
34237;BME280;20501;45.956;13.632;2023-04-16T01:19:35;100046.88;;;9.61;72.63
34237;BME280;20501;45.956;13.632;2023-04-16T01:22:01;100040.81;;;11.15;66.93
34237;BME280;20501;45.956;13.632;2023-04-16T01:24:26;100038.94;;;11.95;63.76
34237;BME280;20501;45.956;13.632;2023-04-16T01:26:52;100043.56;;;10.79;65.59
34237;BME280;20501;45.956;13.632;2023-04-16T01:29:17;100053.72;;;10.67;64.37
34237;BME280;20501;45.956;13.632;2023-04-16T01:31:43;100044.91;;;11.45;65.68
34237;BME280;20501;45.956;13.632;2023-04-16T01:34:08;100049.94;;;9.19;69.29
34237;BME280;20501;45.956;13.632;2023-04-16T01:36:33;100044.44;;;11.24;66.33
34237;BME280;20501;45.956;13.632;2023-04-16T01:38:59;100040.03;;;11.49;65.44
34237;BME280;20501;45.956;13.632;2023-04-16T01:41:24;100044.34;;;11.95;61.96
34237;BME280;20501;45.956;13.632;2023-04-16T01:43:50;100045.16;;;11.08;64.94
34237;BME280;20501;45.956;13.632;2023-04-16T01:46:34;100043.63;;;11.84;61.68
34237;BME280;20501;45.956;13.632;2023-04-16T01:49:03;100057.13;;;10.69;68.07
34237;BME280;20501;45.956;13.632;2023-04-16T01:51:29;100040.00;;;10.96;66.62
34237;BME280;20501;45.956;13.632;2023-04-16T01:53:55;100055.81;;;9.62;66.92
34237;BME280;20501;45.956;13.632;2023-04-16T01:56:22;100049.56;;;8.94;69.07
34237;BME280;20501;45.956;13.632;2023-04-16T01:58:47;100056.75;;;9.80;71.12
34237;BME280;20501;45.956;13.632;2023-04-16T02:01:13;100043.91;;;11.46;64.59
34237;BME280;20501;45.956;13.632;2023-04-16T02:03:39;100043.72;;;6.73;75.58
34237;BME280;20501;45.956;13.632;2023-04-16T02:06:04;100056.72;;;6.89;79.28
34237;BME280;20501;45.956;13.632;2023-04-16T02:08:30;100068.22;;;9.35;73.26
34237;BME280;20501;45.956;13.632;2023-04-16T02:10:56;100055.16;;;9.40;67.40
34237;BME280;20501;45.956;13.632;2023-04-16T02:13:22;100061.94;;;7.85;76.87
34237;BME280;20501;45.956;13.632;2023-04-16T02:15:50;100070.22;;;8.64;75.43
34237;BME280;20501;45.956;13.632;2023-04-16T02:18:15;100066.06;;;5.84;80.47
34237;BME280;20501;45.956;13.632;2023-04-16T02:20:42;100077.56;;;6.53;80.00
34237;BME280;20501;45.956;13.632;2023-04-16T02:23:08;100054.38;;;9.00;71.88
34237;BME280;20501;45.956;13.632;2023-04-16T02:25:40;100054.13;;;6.88;76.79
34237;BME280;20501;45.956;13.632;2023-04-16T02:28:08;100064.53;;;7.97;74.50
34237;BME280;20501;45.956;13.632;2023-04-16T02:30:38;100066.84;;;8.11;76.00
34237;BME280;20501;45.956;13.632;2023-04-16T02:33:04;100062.59;;;10.59;68.15
34237;BME280;20501;45.956;13.632;2023-04-16T02:35:32;100060.97;;;11.47;64.60
34237;BME280;20501;45.956;13.632;2023-04-16T02:37:57;100073.50;;;9.36;69.73
34237;BME280;20501;45.956;13.632;2023-04-16T02:40:24;100056.59;;;9.44;72.10
34237;BME280;20501;45.956;13.632;2023-04-16T02:42:50;100063.25;;;7.39;75.34
34237;BME280;20501;45.956;13.632;2023-04-16T02:45:15;100062.56;;;7.99;73.64
34237;BME280;20501;45.956;13.632;2023-04-16T02:47:41;100057.72;;;9.41;67.45
34237;BME280;20501;45.956;13.632;2023-04-16T02:50:06;100068.47;;;6.98;80.85
34237;BME280;20501;45.956;13.632;2023-04-16T02:52:32;100059.88;;;7.68;73.26
34237;BME280;20501;45.956;13.632;2023-04-16T02:54:58;100063.97;;;7.93;72.35
34237;BME280;20501;45.956;13.632;2023-04-16T02:57:23;100065.28;;;6.39;78.15
34237;BME280;20501;45.956;13.632;2023-04-16T02:59:49;100090.50;;;8.68;75.07
34237;BME280;20501;45.956;13.632;2023-04-16T03:02:14;100063.47;;;10.04;69.38
34237;BME280;20501;45.956;13.632;2023-04-16T03:04:40;100052.13;;;6.36;76.84
34237;BME280;20501;45.956;13.632;2023-04-16T03:07:06;100072.31;;;7.17;77.03
34237;BME280;20501;45.956;13.632;2023-04-16T03:09:32;100057.97;;;7.06;79.35
34237;BME280;20501;45.956;13.632;2023-04-16T03:11:58;100070.75;;;7.87;74.18
34237;BME280;20501;45.956;13.632;2023-04-16T03:14:23;100066.00;;;9.78;70.34
34237;BME280;20501;45.956;13.632;2023-04-16T03:16:48;100080.59;;;11.23;64.92
34237;BME280;20501;45.956;13.632;2023-04-16T03:19:14;100070.28;;;8.33;71.75
34237;BME280;20501;45.956;13.632;2023-04-16T03:21:39;100082.28;;;8.60;74.73
34237;BME280;20501;45.956;13.632;2023-04-16T03:24:05;100071.53;;;8.79;70.53
34237;BME280;20501;45.956;13.632;2023-04-16T03:26:30;100080.72;;;9.83;69.36
34237;BME280;20501;45.956;13.632;2023-04-16T03:28:56;100081.00;;;8.54;69.89
34237;BME280;20501;45.956;13.632;2023-04-16T03:31:23;100072.50;;;10.68;66.83
34237;BME280;20501;45.956;13.632;2023-04-16T03:33:48;100078.91;;;10.86;65.60
34237;BME280;20501;45.956;13.632;2023-04-16T03:36:14;100090.38;;;9.38;69.85
34237;BME280;20501;45.956;13.632;2023-04-16T03:38:39;100086.09;;;9.93;69.42
34237;BME280;20501;45.956;13.632;2023-04-16T03:41:05;100091.59;;;8.05;70.18
34237;BME280;20501;45.956;13.632;2023-04-16T03:43:30;100094.28;;;10.39;68.00
34237;BME280;20501;45.956;13.632;2023-04-16T03:45:55;100101.91;;;10.72;65.34
34237;BME280;20501;45.956;13.632;2023-04-16T03:48:21;100095.28;;;9.63;64.18
34237;BME280;20501;45.956;13.632;2023-04-16T03:50:46;100100.03;;;8.92;72.40
34237;BME280;20501;45.956;13.632;2023-04-16T03:53:12;100104.16;;;7.21;73.70
34237;BME280;20501;45.956;13.632;2023-04-16T03:55:38;100100.34;;;6.70;77.71
34237;BME280;20501;45.956;13.632;2023-04-16T03:58:03;100109.81;;;8.73;73.75
34237;BME280;20501;45.956;13.632;2023-04-16T04:00:29;100113.50;;;9.41;69.75
34237;BME280;20501;45.956;13.632;2023-04-16T04:02:55;100111.91;;;9.48;71.42
34237;BME280;20501;45.956;13.632;2023-04-16T04:05:21;100109.72;;;8.03;75.09
34237;BME280;20501;45.956;13.632;2023-04-16T04:07:46;100121.09;;;8.16;73.72
34237;BME280;20501;45.956;13.632;2023-04-16T04:10:12;100129.38;;;10.01;68.89
34237;BME280;20501;45.956;13.632;2023-04-16T04:12:37;100116.78;;;11.30;63.76
34237;BME280;20501;45.956;13.632;2023-04-16T04:15:03;100135.53;;;10.21;68.01
34237;BME280;20501;45.956;13.632;2023-04-16T04:17:28;100131.34;;;9.52;63.61
34237;BME280;20501;45.956;13.632;2023-04-16T04:19:53;100141.56;;;10.05;68.86
34237;BME280;20501;45.956;13.632;2023-04-16T04:22:19;100144.72;;;9.04;66.29
34237;BME280;20501;45.956;13.632;2023-04-16T04:24:44;100146.53;;;10.48;67.15
34237;BME280;20501;45.956;13.632;2023-04-16T04:27:10;100146.28;;;11.59;63.13
34237;BME280;20501;45.956;13.632;2023-04-16T04:29:35;100153.13;;;6.81;74.58
34237;BME280;20501;45.956;13.632;2023-04-16T04:32:00;100152.34;;;8.99;73.09
34237;BME280;20501;45.956;13.632;2023-04-16T04:34:26;100164.09;;;9.86;69.01
34237;BME280;20501;45.956;13.632;2023-04-16T04:36:51;100172.09;;;10.81;65.23
34237;BME280;20501;45.956;13.632;2023-04-16T04:39:17;100163.28;;;9.37;69.81
34237;BME280;20501;45.956;13.632;2023-04-16T04:41:44;100155.50;;;7.39;73.12
34237;BME280;20501;45.956;13.632;2023-04-16T04:44:10;100162.44;;;7.63;73.64
34237;BME280;20501;45.956;13.632;2023-04-16T04:46:35;100166.56;;;9.50;70.61
34237;BME280;20501;45.956;13.632;2023-04-16T04:49:01;100177.94;;;8.02;71.79
34237;BME280;20501;45.956;13.632;2023-04-16T04:51:26;100176.91;;;10.60;66.93
34237;BME280;20501;45.956;13.632;2023-04-16T04:53:52;100170.44;;;10.33;66.37
34237;BME280;20501;45.956;13.632;2023-04-16T04:56:17;100179.13;;;9.99;64.29
34237;BME280;20501;45.956;13.632;2023-04-16T04:58:43;100180.44;;;8.46;69.04
34237;BME280;20501;45.956;13.632;2023-04-16T05:01:08;100180.84;;;9.80;69.57
34237;BME280;20501;45.956;13.632;2023-04-16T05:03:33;100180.38;;;8.36;69.35
34237;BME280;20501;45.956;13.632;2023-04-16T05:05:59;100176.66;;;7.33;73.89
34237;BME280;20501;45.956;13.632;2023-04-16T05:08:25;100184.50;;;8.71;70.90
34237;BME280;20501;45.956;13.632;2023-04-16T05:10:50;100188.94;;;7.47;74.24
34237;BME280;20501;45.956;13.632;2023-04-16T05:13:15;100177.75;;;8.15;72.50
34237;BME280;20501;45.956;13.632;2023-04-16T05:15:41;100183.16;;;9.16;72.47
34237;BME280;20501;45.956;13.632;2023-04-16T05:18:06;100187.53;;;7.95;73.43
34237;BME280;20501;45.956;13.632;2023-04-16T05:20:32;100201.53;;;9.99;69.53
34237;BME280;20501;45.956;13.632;2023-04-16T05:22:57;100193.00;;;9.94;68.90
34237;BME280;20501;45.956;13.632;2023-04-16T05:25:22;100185.41;;;7.67;72.88
34237;BME280;20501;45.956;13.632;2023-04-16T05:27:48;100191.78;;;8.18;73.55
34237;BME280;20501;45.956;13.632;2023-04-16T05:30:13;100200.88;;;10.45;67.54
34237;BME280;20501;45.956;13.632;2023-04-16T05:32:38;100213.28;;;10.18;66.45
34237;BME280;20501;45.956;13.632;2023-04-16T05:35:05;100207.84;;;9.41;69.81
34237;BME280;20501;45.956;13.632;2023-04-16T05:37:31;100215.47;;;11.26;64.61
34237;BME280;20501;45.956;13.632;2023-04-16T05:39:56;100203.38;;;11.74;62.58
34237;BME280;20501;45.956;13.632;2023-04-16T05:42:22;100204.00;;;9.63;66.73
34237;BME280;20501;45.956;13.632;2023-04-16T05:44:47;100222.19;;;9.81;69.63
34237;BME280;20501;45.956;13.632;2023-04-16T05:47:12;100225.81;;;10.57;67.29
34237;BME280;20501;45.956;13.632;2023-04-16T05:49:38;100208.25;;;11.71;63.19
34237;BME280;20501;45.956;13.632;2023-04-16T05:52:04;100222.75;;;9.55;69.14
34237;BME280;20501;45.956;13.632;2023-04-16T05:54:29;100211.50;;;9.89;67.05
34237;BME280;20501;45.956;13.632;2023-04-16T05:56:55;100230.53;;;9.19;71.56
34237;BME280;20501;45.956;13.632;2023-04-16T05:59:20;100230.78;;;10.14;67.11
34237;BME280;20501;45.956;13.632;2023-04-16T06:01:46;100218.50;;;11.41;64.80
34237;BME280;20501;45.956;13.632;2023-04-16T06:04:11;100226.22;;;10.90;66.41
34237;BME280;20501;45.956;13.632;2023-04-16T06:06:37;100232.38;;;10.82;63.50
34237;BME280;20501;45.956;13.632;2023-04-16T06:09:02;100231.38;;;9.29;70.78
34237;BME280;20501;45.956;13.632;2023-04-16T06:11:29;100231.81;;;9.14;71.65
34237;BME280;20501;45.956;13.632;2023-04-16T06:13:54;100238.75;;;10.91;66.70
34237;BME280;20501;45.956;13.632;2023-04-16T06:16:20;100246.53;;;11.40;64.79
34237;BME280;20501;45.956;13.632;2023-04-16T06:18:46;100233.59;;;12.06;62.48
34237;BME280;20501;45.956;13.632;2023-04-16T06:21:11;100241.47;;;9.27;71.70
34237;BME280;20501;45.956;13.632;2023-04-16T06:23:36;100252.38;;;10.14;68.73
34237;BME280;20501;45.956;13.632;2023-04-16T06:26:03;100248.94;;;10.69;68.10
34237;BME280;20501;45.956;13.632;2023-04-16T06:28:28;100245.16;;;9.65;71.49
34237;BME280;20501;45.956;13.632;2023-04-16T06:30:54;100244.59;;;9.81;71.14
34237;BME280;20501;45.956;13.632;2023-04-16T06:33:19;100237.69;;;10.46;69.87
34237;BME280;20501;45.956;13.632;2023-04-16T06:35:44;100234.88;;;10.18;69.56
34237;BME280;20501;45.956;13.632;2023-04-16T06:38:10;100247.28;;;9.32;73.54
34237;BME280;20501;45.956;13.632;2023-04-16T06:40:35;100249.97;;;10.01;70.85
34237;BME280;20501;45.956;13.632;2023-04-16T06:43:01;100257.44;;;11.02;67.64
34237;BME280;20501;45.956;13.632;2023-04-16T06:45:27;100258.59;;;10.14;70.98
34237;BME280;20501;45.956;13.632;2023-04-16T06:47:52;100260.94;;;9.80;72.62
34237;BME280;20501;45.956;13.632;2023-04-16T06:50:18;100252.97;;;10.93;68.17
34237;BME280;20501;45.956;13.632;2023-04-16T06:52:43;100254.47;;;11.23;66.73
34237;BME280;20501;45.956;13.632;2023-04-16T06:55:10;100254.25;;;11.71;65.00
34237;BME280;20501;45.956;13.632;2023-04-16T06:57:35;100262.06;;;9.77;74.17
34237;BME280;20501;45.956;13.632;2023-04-16T07:00:02;100265.28;;;11.23;67.24
34237;BME280;20501;45.956;13.632;2023-04-16T07:02:27;100259.28;;;10.26;71.38
34237;BME280;20501;45.956;13.632;2023-04-16T07:04:53;100255.19;;;10.22;71.77
34237;BME280;20501;45.956;13.632;2023-04-16T07:07:18;100262.56;;;10.40;71.44
34237;BME280;20501;45.956;13.632;2023-04-16T07:09:43;100266.88;;;11.44;67.12
34237;BME280;20501;45.956;13.632;2023-04-16T07:12:09;100268.16;;;12.12;64.53
34237;BME280;20501;45.956;13.632;2023-04-16T07:14:36;100269.56;;;10.98;69.01
34237;BME280;20501;45.956;13.632;2023-04-16T07:17:01;100267.06;;;11.14;68.26
34237;BME280;20501;45.956;13.632;2023-04-16T07:19:26;100270.88;;;11.40;67.65
34237;BME280;20501;45.956;13.632;2023-04-16T07:21:56;100268.75;;;11.98;65.39
34237;BME280;20501;45.956;13.632;2023-04-16T07:24:22;100265.84;;;11.27;68.64
34237;BME280;20501;45.956;13.632;2023-04-16T07:26:47;100268.28;;;10.07;71.85
34237;BME280;20501;45.956;13.632;2023-04-16T07:29:12;100270.38;;;10.43;71.23
34237;BME280;20501;45.956;13.632;2023-04-16T07:31:38;100278.97;;;11.22;68.07
34237;BME280;20501;45.956;13.632;2023-04-16T07:34:03;100278.31;;;10.82;71.72
34237;BME280;20501;45.956;13.632;2023-04-16T07:36:29;100285.00;;;10.30;71.06
34237;BME280;20501;45.956;13.632;2023-04-16T07:38:55;100272.97;;;10.72;69.37
34237;BME280;20501;45.956;13.632;2023-04-16T07:41:21;100283.63;;;11.02;69.61
34237;BME280;20501;45.956;13.632;2023-04-16T07:43:46;100280.63;;;12.05;65.39
34237;BME280;20501;45.956;13.632;2023-04-16T07:46:12;100288.78;;;12.31;64.32
34237;BME280;20501;45.956;13.632;2023-04-16T07:48:37;100299.88;;;11.84;64.68
34237;BME280;20501;45.956;13.632;2023-04-16T07:51:02;100275.03;;;12.25;63.16
34237;BME280;20501;45.956;13.632;2023-04-16T07:53:28;100287.38;;;11.65;66.22
34237;BME280;20501;45.956;13.632;2023-04-16T07:55:53;100285.31;;;10.75;66.72
34237;BME280;20501;45.956;13.632;2023-04-16T07:58:19;100281.75;;;11.12;67.08
34237;BME280;20501;45.956;13.632;2023-04-16T08:00:44;100286.25;;;11.39;65.62
34237;BME280;20501;45.956;13.632;2023-04-16T08:03:10;100298.72;;;11.50;65.55
34237;BME280;20501;45.956;13.632;2023-04-16T08:05:35;100283.25;;;12.15;64.15
34237;BME280;20501;45.956;13.632;2023-04-16T08:08:00;100289.78;;;12.57;62.54
34237;BME280;20501;45.956;13.632;2023-04-16T08:10:26;100294.78;;;11.99;64.13
34237;BME280;20501;45.956;13.632;2023-04-16T08:12:52;100297.06;;;11.39;62.75
34237;BME280;20501;45.956;13.632;2023-04-16T08:15:17;100298.53;;;11.34;64.08
34237;BME280;20501;45.956;13.632;2023-04-16T08:17:43;100302.03;;;11.16;61.64
34237;BME280;20501;45.956;13.632;2023-04-16T08:20:09;100304.38;;;11.11;63.41
34237;BME280;20501;45.956;13.632;2023-04-16T08:22:34;100305.31;;;11.66;62.35
34237;BME280;20501;45.956;13.632;2023-04-16T08:25:02;100303.81;;;11.53;61.51
34237;BME280;20501;45.956;13.632;2023-04-16T08:27:28;100318.91;;;11.74;63.28
34237;BME280;20501;45.956;13.632;2023-04-16T08:29:53;100301.06;;;11.99;61.83
34237;BME280;20501;45.956;13.632;2023-04-16T08:32:19;100300.56;;;11.86;59.37
34237;BME280;20501;45.956;13.632;2023-04-16T08:34:44;100311.59;;;12.02;59.38
34237;BME280;20501;45.956;13.632;2023-04-16T08:37:10;100317.09;;;11.83;62.18
34237;BME280;20501;45.956;13.632;2023-04-16T08:39:39;100309.09;;;11.91;61.57
34237;BME280;20501;45.956;13.632;2023-04-16T08:42:05;100307.06;;;11.93;58.03
34237;BME280;20501;45.956;13.632;2023-04-16T08:44:36;100310.03;;;12.44;57.31
34237;BME280;20501;45.956;13.632;2023-04-16T08:47:08;100315.50;;;12.52;55.98
34237;BME280;20501;45.956;13.632;2023-04-16T08:49:35;100316.91;;;12.12;56.38
34237;BME280;20501;45.956;13.632;2023-04-16T08:52:09;100312.66;;;12.10;56.22
34237;BME280;20501;45.956;13.632;2023-04-16T08:55:00;100318.66;;;12.21;57.63
34237;BME280;20501;45.956;13.632;2023-04-16T08:57:43;100314.16;;;12.57;59.34
34237;BME280;20501;45.956;13.632;2023-04-16T09:00:12;100314.38;;;12.37;57.85
34237;BME280;20501;45.956;13.632;2023-04-16T09:02:38;100306.69;;;12.50;52.87
34237;BME280;20501;45.956;13.632;2023-04-16T09:05:05;100315.81;;;12.49;55.87
34237;BME280;20501;45.956;13.632;2023-04-16T09:07:33;100307.56;;;12.59;56.61
34237;BME280;20501;45.956;13.632;2023-04-16T09:09:58;100309.19;;;12.70;54.05
34237;BME280;20501;45.956;13.632;2023-04-16T09:12:24;100306.31;;;12.45;56.69
34237;BME280;20501;45.956;13.632;2023-04-16T09:14:50;100305.06;;;12.66;54.74
34237;BME280;20501;45.956;13.632;2023-04-16T09:17:17;100304.09;;;12.75;54.82
34237;BME280;20501;45.956;13.632;2023-04-16T09:19:42;100303.75;;;13.05;57.00
34237;BME280;20501;45.956;13.632;2023-04-16T09:22:08;100308.25;;;12.88;53.52
34237;BME280;20501;45.956;13.632;2023-04-16T09:24:33;100304.66;;;12.79;53.64
34237;BME280;20501;45.956;13.632;2023-04-16T09:26:59;100304.00;;;12.85;55.76
34237;BME280;20501;45.956;13.632;2023-04-16T09:29:35;100305.41;;;12.97;55.11
34237;BME280;20501;45.956;13.632;2023-04-16T09:32:05;100295.47;;;13.06;56.31
34237;BME280;20501;45.956;13.632;2023-04-16T09:37:18;100296.31;;;13.15;54.91
34237;BME280;20501;45.956;13.632;2023-04-16T09:39:52;100302.94;;;13.21;53.11
34237;BME280;20501;45.956;13.632;2023-04-16T09:42:26;100296.84;;;13.19;55.69
34237;BME280;20501;45.956;13.632;2023-04-16T09:44:53;100310.66;;;12.99;51.45
34237;BME280;20501;45.956;13.632;2023-04-16T09:47:20;100308.41;;;12.86;51.85
34237;BME280;20501;45.956;13.632;2023-04-16T09:49:46;100306.78;;;13.01;52.67
34237;BME280;20501;45.956;13.632;2023-04-16T09:52:16;100302.94;;;13.12;52.68
34237;BME280;20501;45.956;13.632;2023-04-16T09:57:17;100315.78;;;13.02;55.63
34237;BME280;20501;45.956;13.632;2023-04-16T09:59:42;100301.31;;;12.93;53.61
34237;BME280;20501;45.956;13.632;2023-04-16T10:02:08;100306.31;;;13.06;52.35
34237;BME280;20501;45.956;13.632;2023-04-16T10:04:50;100304.63;;;13.13;54.09
34237;BME280;20501;45.956;13.632;2023-04-16T10:07:16;100296.84;;;13.19;50.25
34237;BME280;20501;45.956;13.632;2023-04-16T10:09:42;100290.66;;;12.92;52.17
34237;BME280;20501;45.956;13.632;2023-04-16T10:12:07;100296.78;;;13.02;53.19
34237;BME280;20501;45.956;13.632;2023-04-16T10:14:33;100297.53;;;13.21;53.77
34237;BME280;20501;45.956;13.632;2023-04-16T10:16:59;100308.31;;;13.47;53.56
34237;BME280;20501;45.956;13.632;2023-04-16T10:19:25;100289.06;;;13.24;50.33
34237;BME280;20501;45.956;13.632;2023-04-16T10:21:52;100288.25;;;13.31;52.90
34237;BME280;20501;45.956;13.632;2023-04-16T10:24:17;100295.94;;;13.53;53.71
34237;BME280;20501;45.956;13.632;2023-04-16T10:26:43;100288.44;;;13.38;50.38
34237;BME280;20501;45.956;13.632;2023-04-16T10:29:10;100298.84;;;13.43;53.26
34237;BME280;20501;45.956;13.632;2023-04-16T10:31:37;100293.22;;;13.44;52.61
34237;BME280;20501;45.956;13.632;2023-04-16T10:34:04;100279.34;;;13.56;54.07
34237;BME280;20501;45.956;13.632;2023-04-16T10:36:30;100280.72;;;13.60;51.96
34237;BME280;20501;45.956;13.632;2023-04-16T10:38:59;100276.66;;;13.81;51.97
34237;BME280;20501;45.956;13.632;2023-04-16T10:41:25;100273.78;;;13.82;49.65
34237;BME280;20501;45.956;13.632;2023-04-16T10:43:52;100284.13;;;13.78;51.74
34237;BME280;20501;45.956;13.632;2023-04-16T10:46:21;100274.28;;;13.69;50.66
34237;BME280;20501;45.956;13.632;2023-04-16T10:48:48;100275.66;;;13.82;50.82
34237;BME280;20501;45.956;13.632;2023-04-16T10:51:33;100278.69;;;13.87;51.47
34237;BME280;20501;45.956;13.632;2023-04-16T10:54:18;100270.06;;;14.08;50.34
34237;BME280;20501;45.956;13.632;2023-04-16T10:56:44;100271.91;;;14.07;50.78
34237;BME280;20501;45.956;13.632;2023-04-16T10:59:11;100265.09;;;14.20;48.24
34237;BME280;20501;45.956;13.632;2023-04-16T11:01:40;100270.56;;;14.12;49.66
34237;BME280;20501;45.956;13.632;2023-04-16T11:12:11;100273.94;;;13.89;48.45
34237;BME280;20501;45.956;13.632;2023-04-16T11:14:38;100264.28;;;13.86;49.21
34237;BME280;20501;45.956;13.632;2023-04-16T11:17:04;100271.91;;;13.91;48.46
34237;BME280;20501;45.956;13.632;2023-04-16T11:19:30;100272.44;;;13.86;48.38
34237;BME280;20501;45.956;13.632;2023-04-16T11:21:55;100272.06;;;13.81;48.23
34237;BME280;20501;45.956;13.632;2023-04-16T11:24:21;100259.38;;;13.82;48.70
34237;BME280;20501;45.956;13.632;2023-04-16T11:26:50;100274.97;;;13.71;48.51
34237;BME280;20501;45.956;13.632;2023-04-16T11:29:15;100278.00;;;13.68;48.23
34237;BME280;20501;45.956;13.632;2023-04-16T11:31:41;100266.31;;;13.76;49.51
34237;BME280;20501;45.956;13.632;2023-04-16T11:34:07;100275.16;;;13.86;49.48
34237;BME280;20501;45.956;13.632;2023-04-16T11:36:45;100265.97;;;13.87;46.59
34237;BME280;20501;45.956;13.632;2023-04-16T11:39:11;100259.34;;;13.98;48.31
34237;BME280;20501;45.956;13.632;2023-04-16T11:41:47;100265.81;;;14.14;46.05
34237;BME280;20501;45.956;13.632;2023-04-16T11:44:23;100261.38;;;14.13;47.53
34237;BME280;20501;45.956;13.632;2023-04-16T11:46:49;100268.19;;;14.00;49.39
34237;BME280;20501;45.956;13.632;2023-04-16T11:49:15;100274.47;;;14.09;46.26
34237;BME280;20501;45.956;13.632;2023-04-16T11:51:45;100271.56;;;14.11;46.86
34237;BME280;20501;45.956;13.632;2023-04-16T11:54:22;100275.81;;;14.05;47.89
34237;BME280;20501;45.956;13.632;2023-04-16T11:56:49;100272.75;;;14.00;47.02
34237;BME280;20501;45.956;13.632;2023-04-16T11:59:17;100281.94;;;14.07;48.17
34237;BME280;20501;45.956;13.632;2023-04-16T12:01:47;100273.09;;;14.05;47.79
34237;BME280;20501;45.956;13.632;2023-04-16T12:04:14;100277.34;;;14.07;47.73
34237;BME280;20501;45.956;13.632;2023-04-16T12:07:25;100278.72;;;14.03;49.63
34237;BME280;20501;45.956;13.632;2023-04-16T12:09:26;100273.28;;;14.12;46.17
34237;BME280;20501;45.956;13.632;2023-04-16T12:11:52;100291.09;;;14.14;49.52
34237;BME280;20501;45.956;13.632;2023-04-16T12:14:18;100277.00;;;14.11;50.04
34237;BME280;20501;45.956;13.632;2023-04-16T12:16:44;100274.47;;;14.09;47.11
34237;BME280;20501;45.956;13.632;2023-04-16T12:19:11;100270.88;;;14.08;47.05
34237;BME280;20501;45.956;13.632;2023-04-16T12:24:02;100272.75;;;14.08;47.00
34237;BME280;20501;45.956;13.632;2023-04-16T12:26:38;100265.28;;;14.10;48.38
34237;BME280;20501;45.956;13.632;2023-04-16T12:29:21;100264.59;;;14.24;48.37
34237;BME280;20501;45.956;13.632;2023-04-16T12:31:50;100261.03;;;14.24;45.52
34237;BME280;20501;45.956;13.632;2023-04-16T12:34:17;100256.63;;;14.23;47.11
34237;BME280;20501;45.956;13.632;2023-04-16T12:36:44;100253.69;;;14.33;46.45
34237;BME280;20501;45.956;13.632;2023-04-16T12:39:10;100250.47;;;14.46;47.61
34237;BME280;20501;45.956;13.632;2023-04-16T12:41:38;100257.25;;;14.42;47.59
34237;BME280;20501;45.956;13.632;2023-04-16T12:44:05;100251.59;;;14.60;46.13
34237;BME280;20501;45.956;13.632;2023-04-16T12:46:36;100255.00;;;14.53;46.04
34237;BME280;20501;45.956;13.632;2023-04-16T12:49:02;100257.03;;;14.60;44.42
34237;BME280;20501;45.956;13.632;2023-04-16T12:51:27;100259.28;;;14.56;47.04
34237;BME280;20501;45.956;13.632;2023-04-16T12:53:53;100265.53;;;14.57;47.47
34237;BME280;20501;45.956;13.632;2023-04-16T12:56:19;100259.44;;;14.63;43.11